Terminal Aerodrome Forecast
Issued by NWS

Home | Current Version | Previous Version | Text Only | Print | Product List | Glossary On
Versions: 1 2 3 4 5 6 7 8 9 10 11 12 13 14 15 16 17 18 19 20 21 22
000
FTUS43 KGRB 231721
TAFAUW
TAF
KAUW 231721Z 2318/2418 17008KT P6SM BKN100 BKN250
     FM232100 26006KT P6SM VCSH SCT050 BKN090
     FM240000 31007KT P6SM -RA SCT025 OVC050
      TEMPO 2402/2404 5SM -RA BR BKN025
     FM240400 31012G18KT 5SM -RA BR BKN020 OVC040
     FM240800 31014G24KT 4SM -RA BR OVC012
     FM241400 31019G32KT P6SM VCSH SCT015 OVC030
      TEMPO 2414/2418 4SM -RA BR BKN015=

USA.gov is the U.S. government's official web portal to all federal, state and local government web resources and services.